Time;durP1;ratioP1;P1;durP2;ratioP2;P2;SDS_P1;SDS_P2;PMS_P1;PMS_P2;Temp;Humidity;BMP_temperature;BMP_pressure;BME280_temperature;BME280_humidity;BME280_pressure;Samples;Min_cycle;Max_cycle;Signal;HPM_P1;HPM_P2
2021/04/23 00:01:07;;;;;;;;;20.75;18.00;;;;;12.50;35.23;99121.97;6183971;28;126136;-66
2021/04/23 00:04:11;;;;;;;;;20.00;19.00;;;;;12.53;35.22;99119.63;6187635;28;126066;-65
2021/04/23 00:07:14;;;;;;;;;22.25;19.00;;;;;12.55;35.26;99125.66;6187884;28;126307;-65
2021/04/23 00:10:20;;;;;;;;;20.40;18.00;;;;;12.53;35.71;99122.34;6181138;28;124880;-65
2021/04/23 00:13:26;;;;;;;;;21.00;19.00;;;;;12.50;35.63;99127.38;6177811;28;126039;-65
2021/04/23 00:16:28;;;;;;;;;21.75;18.75;;;;;12.44;35.87;99117.47;6180363;28;126501;-65
2021/04/23 00:19:31;;;;;;;;;21.60;19.60;;;;;12.44;35.77;99118.31;6179202;28;125137;-65
2021/04/23 00:22:34;;;;;;;;;21.80;19.40;;;;;12.45;35.77;99119.97;6153740;28;126854;-65
2021/04/23 00:25:37;;;;;;;;;21.00;19.00;;;;;12.46;35.77;99118.88;6196032;28;126426;-65
2021/04/23 00:28:40;;;;;;;;;21.00;19.40;;;;;12.44;35.88;99125.59;6185837;28;126372;-65
2021/04/23 00:35:07;;;;;;;;;20.20;17.20;;;;;12.40;35.93;99124.41;6188101;28;124313;-65
2021/04/23 00:38:12;;;;;;;;;19.75;17.75;;;;;12.38;35.92;99121.91;6169795;28;126818;-65
2021/04/23 00:41:17;;;;;;;;;21.00;19.00;;;;;12.41;36.05;99117.94;6187222;28;124868;-65
2021/04/23 00:44:20;;;;;;;;;21.00;18.60;;;;;12.41;36.01;99113.31;6169704;28;126251;-65
2021/04/23 00:47:22;;;;;;;;;21.40;19.00;;;;;12.41;36.07;99112.53;6187537;28;126338;-65
2021/04/23 00:50:31;;;;;;;;;20.80;18.00;;;;;12.39;36.03;99115.44;6178242;28;125786;-65
2021/04/23 00:53:37;;;;;;;;;19.60;17.60;;;;;12.36;36.08;99115.91;6177267;28;125876;-65
2021/04/23 00:56:41;;;;;;;;;19.50;17.00;;;;;12.39;36.32;99110.03;6181320;28;124816;-64
2021/04/23 00:59:43;;;;;;;;;22.00;19.00;;;;;12.33;36.46;99113.66;6171137;28;126508;-64
2021/04/23 01:02:45;;;;;;;;;20.50;17.00;;;;;12.32;36.50;99109.28;6170116;28;125276;-66
2021/04/23 01:05:50;;;;;;;;;19.40;17.40;;;;;12.30;36.63;99110.59;6186058;28;125088;-65
2021/04/23 01:08:55;;;;;;;;;23.00;18.00;;;;;12.25;36.89;99111.28;6178726;28;127061;-65
2021/04/23 01:12:00;;;;;;;;;20.50;20.00;;;;;12.16;36.94;99115.34;6169003;28;126130;-65
2021/04/23 01:15:03;;;;;;;;;20.00;18.00;;;;;11.99;37.39;99096.19;6153848;28;125106;-65
2021/04/23 01:18:05;;;;;;;;;21.20;19.60;;;;;12.14;37.35;99118.25;6186479;28;126401;-65
2021/04/23 01:21:11;;;;;;;;;20.00;18.20;;;;;12.08;37.44;99121.84;6168796;28;125215;-65
2021/04/23 01:24:14;;;;;;;;;20.60;18.80;;;;;12.04;37.52;99126.06;6185343;28;125646;-65
2021/04/23 01:27:16;;;;;;;;;22.00;21.00;;;;;11.88;37.53;99104.22;6189381;28;125134;-65
2021/04/23 01:30:22;;;;;;;;;20.00;19.00;;;;;12.00;37.78;99121.34;6170008;28;125429;-65
2021/04/23 01:33:26;;;;;;;;;18.40;17.40;;;;;11.92;37.81;99129.75;6186920;28;124094;-65
2021/04/23 01:36:29;;;;;;;;;19.40;16.40;;;;;11.94;37.89;99127.63;6186447;28;125030;-65
2021/04/23 01:39:35;;;;;;;;;24.00;19.00;;;;;11.88;37.85;99134.75;6185986;28;126054;-65
2021/04/23 01:42:38;;;;;;;;;22.75;20.75;;;;;11.91;38.09;99126.22;6170327;28;124024;-65
2021/04/23 01:45:40;;;;;;;;;18.20;17.00;;;;;11.86;38.41;99128.78;6185492;28;126223;-65
2021/04/23 01:48:43;;;;;;;;;18.60;17.00;;;;;11.73;38.79;99126.19;6167335;28;125029;-65
2021/04/23 01:51:49;;;;;;;;;18.00;16.20;;;;;11.78;38.98;99134.44;6184699;28;125821;-65
2021/04/23 01:54:53;;;;;;;;;19.50;17.50;;;;;11.76;38.71;99119.53;6171613;28;125774;-65
2021/04/23 01:57:55;;;;;;;;;19.40;17.60;;;;;11.93;38.87;99134.06;6169964;28;126182;-65
2021/04/23 02:00:57;;;;;;;;;19.00;18.00;;;;;11.93;38.82;99132.22;6186064;28;127008;-65
2021/04/23 02:04:01;;;;;;;;;19.60;18.00;;;;;11.99;38.68;99144.00;6198079;28;96788;-65
2021/04/23 02:07:06;;;;;;;;;22.50;19.00;;;;;11.96;38.92;99142.59;6184791;28;126268;-65
2021/04/23 02:10:13;;;;;;;;;21.00;19.00;;;;;11.91;39.15;99145.13;6168279;28;124873;-65
2021/04/23 02:13:19;;;;;;;;;18.20;16.60;;;;;11.96;39.09;99147.16;6167776;28;126072;-65
2021/04/23 02:16:21;;;;;;;;;18.25;18.00;;;;;12.01;38.95;99140.03;6185740;28;126162;-65
2021/04/23 02:19:23;;;;;;;;;20.40;18.80;;;;;12.00;39.16;99151.88;6167585;28;125582;-64
2021/04/23 02:22:26;;;;;;;;;20.60;18.60;;;;;12.07;39.18;99155.31;6169813;28;124944;-65
2021/04/23 02:25:30;;;;;;;;;24.60;21.20;;;;;11.93;39.17;99129.50;6185748;28;126348;-65
2021/04/23 02:28:33;;;;;;;;;20.50;18.00;;;;;12.01;39.47;99156.25;6151643;28;124590;-65
2021/04/23 02:31:38;;;;;;;;;23.40;22.00;;;;;12.01;39.56;99156.25;6176659;28;124268;-65
2021/04/23 02:34:40;;;;;;;;;26.00;24.00;;;;;12.03;39.77;99150.59;6185224;28;124772;-65
2021/04/23 02:37:44;;;;;;;;;23.60;22.60;;;;;11.89;39.63;99133.72;6184112;28;126208;-65
2021/04/23 02:40:47;;;;;;;;;24.50;22.00;;;;;11.83;39.62;99148.09;6170476;28;125142;-65
2021/04/23 02:43:52;;;;;;;;;27.00;23.00;;;;;11.85;40.00;99166.81;6185012;28;126515;-64
2021/04/23 02:46:55;;;;;;;;;27.00;23.00;;;;;11.79;40.07;99164.97;6185703;28;124781;-66
2021/04/23 02:49:58;;;;;;;;;23.60;21.00;;;;;11.79;40.22;99160.41;6184413;28;126622;-64
2021/04/23 02:53:02;;;;;;;;;28.00;25.00;;;;;11.74;40.43;99160.25;6185224;28;126400;-66
2021/04/23 02:56:06;;;;;;;;;25.25;23.00;;;;;11.73;40.59;99159.41;6200512;28;125062;-66
2021/04/23 02:59:09;;;;;;;;;25.60;23.00;;;;;11.78;40.68;99169.56;6184474;28;126213;-66
2021/04/23 03:02:12;;;;;;;;;21.25;20.00;;;;;11.82;40.65;99168.09;6165001;28;125725;-65
2021/04/23 03:05:15;;;;;;;;;24.40;22.00;;;;;11.78;40.73;99164.16;6166995;28;125938;-65
2021/04/23 03:08:19;;;;;;;;;22.00;21.00;;;;;11.78;40.95;99166.84;6168358;28;125661;-66
2021/04/23 03:11:23;;;;;;;;;22.00;20.00;;;;;11.80;40.79;99164.78;6174658;28;124923;-66
2021/04/23 03:14:26;;;;;;;;;23.00;20.50;;;;;11.76;40.96;99162.75;6184867;28;125942;-64
2021/04/23 03:17:28;;;;;;;;;23.50;19.50;;;;;11.77;41.04;99169.81;6186237;28;124321;-65
2021/04/23 03:20:30;;;;;;;;;24.20;20.00;;;;;11.79;41.19;99165.81;6174964;28;124904;-64
2021/04/23 03:23:34;;;;;;;;;22.00;19.00;;;;;11.76;41.21;99174.38;6180745;28;126100;-64
2021/04/23 03:26:37;;;;;;;;;23.40;21.00;;;;;11.70;41.46;99173.34;6203769;28;126523;-64
2021/04/23 03:29:39;;;;;;;;;19.00;17.00;;;;;11.80;41.23;99174.75;6154907;28;125161;-65
2021/04/23 03:32:41;;;;;;;;;21.00;18.00;;;;;11.82;41.58;99180.75;6186459;28;126802;-65
2021/04/23 03:35:46;;;;;;;;;18.00;16.50;;;;;11.84;41.29;99175.94;6188752;28;126389;-65
2021/04/23 03:38:51;;;;;;;;;18.00;15.80;;;;;11.89;41.54;99186.91;6188480;28;126010;-65
2021/04/23 03:41:53;;;;;;;;;19.00;18.00;;;;;11.91;41.68;99187.53;6172021;28;124984;-65
2021/04/23 03:44:55;;;;;;;;;17.00;15.40;;;;;11.93;41.67;99186.25;6188215;28;126359;-65
2021/04/23 03:47:57;;;;;;;;;17.00;16.00;;;;;11.93;43.16;99183.53;6188552;28;126537;-65
2021/04/23 03:51:00;;;;;;;;;20.00;17.00;;;;;11.90;42.81;99194.81;6170573;28;124273;-65
2021/04/23 03:54:04;;;;;;;;;19.00;17.00;;;;;11.96;42.61;99190.38;6190000;28;125083;-65
2021/04/23 03:57:07;;;;;;;;;17.00;16.00;;;;;11.97;42.40;99192.06;6188776;28;124862;-66
2021/04/23 04:00:14;;;;;;;;;16.80;15.00;;;;;11.91;42.30;99201.03;6183950;28;126120;-65
2021/04/23 04:03:18;;;;;;;;;18.00;15.00;;;;;11.86;42.23;99198.19;6188264;28;126611;-65
2021/04/23 04:06:20;;;;;;;;;13.60;13.00;;;;;11.91;42.11;99201.03;6171060;28;124386;-65
2021/04/23 04:09:23;;;;;;;;;18.40;16.40;;;;;11.94;41.89;99196.00;6188721;28;124518;-65
2021/04/23 04:12:25;;;;;;;;;19.00;16.40;;;;;11.95;41.96;99204.94;6187929;28;126125;-65
2021/04/23 04:15:28;;;;;;;;;16.40;15.40;;;;;12.01;41.95;99212.16;6168076;28;127983;-65
2021/04/23 04:18:31;;;;;;;;;17.00;15.00;;;;;12.04;41.99;99209.84;6179654;28;125373;-64
2021/04/23 04:21:33;;;;;;;;;16.00;15.00;;;;;12.08;41.52;99218.31;6175884;28;126435;-64
2021/04/23 04:24:36;;;;;;;;;16.60;15.00;;;;;12.04;41.68;99220.66;6188806;28;127224;-65
2021/04/23 04:27:39;;;;;;;;;14.00;13.00;;;;;12.04;41.77;99217.94;6182390;28;126188;-65
2021/04/23 04:30:41;;;;;;;;;15.00;14.75;;;;;11.93;41.91;99224.06;6173833;28;125426;-65
2021/04/23 04:33:44;;;;;;;;;17.40;17.40;;;;;11.85;42.04;99213.56;6183563;28;125128;-65
2021/04/23 04:36:47;;;;;;;;;19.00;15.00;;;;;11.79;42.27;99216.31;6173246;28;126609;-65
2021/04/23 04:39:51;;;;;;;;;16.40;14.40;;;;;11.81;42.29;99230.44;6180743;28;126002;-65
2021/04/23 04:42:57;;;;;;;;;18.60;17.00;;;;;11.82;42.29;99224.81;6169340;28;126525;-65
2021/04/23 04:45:59;;;;;;;;;15.80;14.00;;;;;11.62;42.07;99203.34;6181129;28;124829;-65
2021/04/23 04:49:01;;;;;;;;;19.25;18.25;;;;;11.83;42.41;99229.16;6197725;28;126458;-65
2021/04/23 04:52:05;;;;;;;;;17.60;16.40;;;;;11.83;42.51;99236.41;6182713;28;124382;-65
2021/04/23 04:55:09;;;;;;;;;20.00;17.75;;;;;11.86;42.65;99230.59;6175277;28;126175;-65
2021/04/23 04:58:14;;;;;;;;;19.00;17.50;;;;;11.87;42.47;99241.19;6184274;28;126236;-65
2021/04/23 05:01:17;;;;;;;;;18.00;16.50;;;;;11.94;42.45;99247.34;6186803;28;125027;-65
2021/04/23 05:04:19;;;;;;;;;17.00;14.00;;;;;12.04;42.37;99244.97;6170896;28;125310;-65
2021/04/23 05:07:21;;;;;;;;;17.80;14.80;;;;;12.16;42.20;99255.88;6172074;28;127321;-65
2021/04/23 05:10:26;;;;;;;;;16.40;15.80;;;;;12.30;42.05;99251.16;6183609;28;124965;-65
2021/04/23 05:13:28;;;;;;;;;15.00;14.00;;;;;12.48;41.65;99256.56;6175351;28;124852;-64
2021/04/23 05:16:30;;;;;;;;;18.60;17.00;;;;;12.61;41.27;99259.13;6169386;28;126063;-65
2021/04/23 05:19:33;;;;;;;;;15.25;14.75;;;;;12.73;41.13;99254.63;6182897;28;126337;-65
2021/04/23 05:22:35;;;;;;;;;16.20;14.20;;;;;12.77;41.15;99263.94;6173708;28;126345;-64
2021/04/23 05:25:39;;;;;;;;;18.40;17.40;;;;;12.77;41.13;99263.94;6150806;28;125547;-64
2021/04/23 05:28:41;;;;;;;;;17.00;16.60;;;;;12.87;41.04;99264.22;6193796;28;125891;-64
2021/04/23 05:31:45;;;;;;;;;18.00;17.00;;;;;13.03;40.88;99265.50;6169509;28;124720;-64
2021/04/23 05:34:48;;;;;;;;;17.33;15.33;;;;;13.13;40.81;99260.41;6155828;28;126142;-65
2021/04/23 05:37:52;;;;;;;;;18.75;17.50;;;;;13.33;40.38;99273.66;6178969;28;126863;-65
2021/04/23 05:40:55;;;;;;;;;21.00;17.60;;;;;13.29;40.56;99277.88;6164862;28;125038;-65
2021/04/23 05:43:57;;;;;;;;;18.40;17.00;;;;;13.47;40.46;99282.41;6198076;28;126333;-65
2021/04/23 05:46:59;;;;;;;;;20.00;19.20;;;;;13.63;40.21;99279.88;6177237;28;126313;-65
2021/04/23 05:50:02;;;;;;;;;21.00;17.40;;;;;13.80;40.21;99288.16;6186014;28;127953;-65
2021/04/23 05:53:05;;;;;;;;;18.00;16.00;;;;;14.03;39.74;99282.75;6185901;28;125166;-65
2021/04/23 05:56:08;;;;;;;;;19.00;18.00;;;;;14.11;39.46;99277.00;6166325;28;126357;-66
2021/04/23 05:59:10;;;;;;;;;16.00;15.00;;;;;14.31;39.28;99282.09;6185912;28;126835;-65
2021/04/23 06:02:12;;;;;;;;;17.40;16.00;;;;;14.29;39.01;99281.47;6186296;28;126344;-66
2021/04/23 06:05:17;;;;;;;;;19.40;17.00;;;;;14.51;39.11;99273.63;6185535;28;126063;-66
2021/04/23 06:08:19;;;;;;;;;15.00;14.75;;;;;14.54;38.56;99270.41;6178557;28;126419;-65
2021/04/23 06:11:23;;;;;;;;;16.00;15.00;;;;;14.61;38.54;99273.84;6176876;28;125620;-65
2021/04/23 06:14:25;;;;;;;;;17.00;16.00;;;;;14.66;38.45;99271.22;6169098;28;127263;-66
2021/04/23 06:17:28;;;;;;;;;15.20;15.00;;;;;14.64;38.32;99276.06;6185513;28;127828;-65
2021/04/23 06:20:33;;;;;;;;;16.20;14.80;;;;;14.59;38.53;99273.25;6174466;28;126448;-65
2021/04/23 06:23:37;;;;;;;;;17.40;16.00;;;;;14.68;38.20;99275.34;6184550;28;123866;-65
2021/04/23 06:26:40;;;;;;;;;18.40;15.60;;;;;14.79;38.19;99281.81;6181998;28;125048;-66
2021/04/23 06:29:43;;;;;;;;;17.00;16.00;;;;;14.64;38.17;99281.50;6167872;28;126789;-65
2021/04/23 06:32:46;;;;;;;;;17.60;17.00;;;;;14.51;38.53;99288.00;6167401;28;125047;-65
2021/04/23 06:35:49;;;;;;;;;17.00;16.00;;;;;14.53;38.49;99290.47;6174283;28;127719;-65
2021/04/23 06:38:51;;;;;;;;;18.00;17.00;;;;;14.42;38.52;99283.16;6183198;28;126559;-65
2021/04/23 06:41:54;;;;;;;;;18.40;17.60;;;;;14.35;39.09;99298.69;6185541;28;125489;-65
2021/04/23 06:44:56;;;;;;;;;18.60;17.00;;;;;14.27;38.83;99284.41;6183991;28;127992;-65
2021/04/23 06:47:59;;;;;;;;;15.00;13.80;;;;;14.24;39.19;99300.34;6151429;28;125378;-65
2021/04/23 06:51:04;;;;;;;;;17.00;16.00;;;;;14.26;39.05;99304.50;6181980;28;126535;-66
2021/04/23 06:54:07;;;;;;;;;20.60;19.00;;;;;14.19;39.19;99295.63;6163932;28;124489;-64
2021/04/23 06:57:10;;;;;;;;;18.20;18.00;;;;;14.31;39.16;99295.66;6175086;28;127505;-65
2021/04/23 07:00:15;;;;;;;;;16.80;14.80;;;;;14.43;38.86;99306.50;6174602;28;125210;-65
2021/04/23 07:03:17;;;;;;;;;17.00;15.00;;;;;14.37;39.07;99310.97;6173442;28;126190;-65
2021/04/23 07:06:20;;;;;;;;;17.00;16.00;;;;;14.39;39.02;99308.88;6173688;28;126928;-65
2021/04/23 07:09:22;;;;;;;;;20.00;18.00;;;;;14.41;38.92;99312.19;6162809;28;127175;-64
2021/04/23 07:12:26;;;;;;;;;22.40;19.60;;;;;14.42;38.83;99312.97;6181364;28;125108;-65
2021/04/23 07:15:30;;;;;;;;;17.00;15.25;;;;;14.45;38.86;99307.09;6179889;28;126174;-65
2021/04/23 07:18:33;;;;;;;;;16.60;14.60;;;;;14.43;38.82;99314.66;6178174;28;126262;-64
2021/04/23 07:21:35;;;;;;;;;15.00;13.00;;;;;14.44;39.04;99319.00;6182264;28;126268;-64
2021/04/23 07:24:38;;;;;;;;;21.25;19.25;;;;;14.31;39.13;99304.59;6165041;28;123903;-64
2021/04/23 07:27:41;;;;;;;;;20.40;18.40;;;;;14.23;39.34;99310.38;6167257;28;128157;-65
2021/04/23 07:30:44;;;;;;;;;19.25;17.25;;;;;14.31;38.92;99298.34;6183495;28;125963;-65
2021/04/23 07:33:46;;;;;;;;;21.00;19.00;;;;;14.61;38.80;99301.78;6167039;28;125799;-65
2021/04/23 07:36:48;;;;;;;;;21.40;19.60;;;;;14.98;38.38;99312.34;6181578;28;126529;-65
2021/04/23 07:39:51;;;;;;;;;21.00;18.00;;;;;15.17;37.85;99317.38;6182791;28;125822;-65
2021/04/23 07:42:54;;;;;;;;;20.60;19.60;;;;;15.22;37.65;99319.34;6165843;28;123790;-65
2021/04/23 07:45:58;;;;;;;;;22.60;20.00;;;;;15.15;37.67;99316.78;6181738;28;124735;-65
2021/04/23 07:49:00;;;;;;;;;22.00;21.00;;;;;15.22;37.60;99322.06;6165921;28;124831;-65
2021/04/23 07:52:03;;;;;;;;;23.00;21.00;;;;;15.36;37.53;99315.28;6165503;28;126320;-65
2021/04/23 07:55:07;;;;;;;;;23.00;21.00;;;;;15.53;37.14;99310.78;6183823;28;126369;-65
2021/04/23 07:58:11;;;;;;;;;25.80;22.00;;;;;15.93;36.91;99316.09;6180683;28;126446;-65
2021/04/23 08:01:20;;;;;;;;;21.50;20.75;;;;;16.15;37.11;99318.91;6176104;28;124812;-65
2021/04/23 08:04:24;;;;;;;;;25.00;21.00;;;;;16.38;35.94;99315.19;6165613;28;125132;-65
2021/04/23 08:07:26;;;;;;;;;21.50;21.50;;;;;16.60;34.51;99315.28;6187947;28;124901;-66
2021/04/23 08:10:30;;;;;;;;;23.00;21.60;;;;;16.75;34.45;99327.22;6187814;28;126445;-66
2021/04/23 08:13:34;;;;;;;;;21.00;20.00;;;;;16.87;34.10;99324.38;6187210;28;124774;-66
2021/04/23 08:16:36;;;;;;;;;20.00;18.00;;;;;16.82;35.01;99332.47;6169182;28;125918;-66
2021/04/23 08:19:38;;;;;;;;;23.00;20.60;;;;;16.43;35.09;99335.13;6177602;28;126738;-66
2021/04/23 08:22:41;;;;;;;;;24.40;20.40;;;;;16.22;35.13;99318.75;6186940;28;126011;-66
2021/04/23 08:25:43;;;;;;;;;22.00;19.00;;;;;16.00;36.24;99327.66;6184404;28;126090;-66
2021/04/23 08:28:46;;;;;;;;;22.00;21.00;;;;;15.99;36.11;99330.59;6186120;28;125135;-65
2021/04/23 08:31:49;;;;;;;;;21.00;18.00;;;;;16.26;35.95;99326.19;6154000;28;124985;-65
2021/04/23 08:34:51;;;;;;;;;20.00;18.00;;;;;16.42;35.79;99295.38;6169797;28;123908;-65
2021/04/23 08:37:53;;;;;;;;;23.40;21.00;;;;;17.13;34.48;99318.19;6180660;28;128353;-67
2021/04/23 08:40:57;;;;;;;;;18.75;17.00;;;;;17.20;34.28;99313.34;6174391;28;126475;-66
2021/04/23 08:44:01;;;;;;;;;21.60;17.80;;;;;17.45;33.96;99318.28;6186928;28;126042;-66
2021/04/23 08:47:03;;;;;;;;;18.75;18.00;;;;;17.90;33.17;99317.94;6184362;28;124450;-66
2021/04/23 08:50:07;;;;;;;;;18.20;15.80;;;;;17.94;32.59;99319.06;6184309;28;124440;-66
2021/04/23 08:53:11;;;;;;;;;19.60;18.00;;;;;17.87;31.76;99323.94;6186757;28;127610;-66
2021/04/23 08:56:13;;;;;;;;;18.00;16.00;;;;;17.71;31.59;99311.22;6163939;28;126351;-66
2021/04/23 08:59:16;;;;;;;;;17.40;17.00;;;;;17.81;31.36;99310.50;6173010;28;126434;-66
2021/04/23 09:02:18;;;;;;;;;16.80;16.00;;;;;17.92;31.92;99321.25;6186880;28;128008;-66
2021/04/23 09:05:21;;;;;;;;;21.00;19.00;;;;;17.88;31.64;99325.59;6186247;28;126889;-66
2021/04/23 09:08:23;;;;;;;;;19.25;16.25;;;;;17.45;32.63;99322.91;6193671;28;124445;-66
2021/04/23 09:11:30;;;;;;;;;20.00;17.20;;;;;17.11;33.68;99320.31;6181358;28;126273;-66
2021/04/23 09:14:33;;;;;;;;;17.60;16.60;;;;;16.73;34.89;99312.19;6162242;28;126117;-66
2021/04/23 09:17:36;;;;;;;;;17.40;17.00;;;;;16.51;35.85;99320.31;6182659;28;126865;-66
2021/04/23 09:20:41;;;;;;;;;16.50;16.00;;;;;16.45;35.75;99315.84;6182312;28;125745;-66
2021/04/23 09:23:47;;;;;;;;;15.40;14.60;;;;;16.70;36.56;99296.38;6178348;28;126036;-66
2021/04/23 09:26:51;;;;;;;;;17.00;16.00;;;;;17.08;36.57;99304.50;6187046;28;125787;-65
2021/04/23 09:29:58;;;;;;;;;19.00;17.00;;;;;17.56;34.33;99306.41;6180660;28;126767;-66
2021/04/23 09:33:01;;;;;;;;;16.00;15.40;;;;;17.96;32.35;99284.19;6179450;28;126490;-66
2021/04/23 09:36:04;;;;;;;;;17.00;15.25;;;;;18.06;31.95;99300.66;6177148;28;127105;-66
2021/04/23 09:39:10;;;;;;;;;17.80;15.20;;;;;18.46;30.43;99304.75;6190831;28;127914;-66
2021/04/23 09:42:15;;;;;;;;;17.60;16.00;;;;;18.81;30.91;99294.09;6189612;28;124991;-65
2021/04/23 09:45:21;;;;;;;;;14.00;13.00;;;;;18.84;30.83;99292.72;6187557;28;127329;-65
2021/04/23 09:48:25;;;;;;;;;17.00;16.00;;;;;18.68;29.48;99293.72;6167683;28;125862;-65
2021/04/23 09:51:27;;;;;;;;;14.00;14.00;;;;;18.97;28.97;99290.31;6181445;28;126026;-66
2021/04/23 09:54:29;;;;;;;;;17.00;15.00;;;;;18.85;29.46;99267.06;6185318;28;128304;-65
2021/04/23 09:57:36;;;;;;;;;17.00;15.40;;;;;18.87;29.38;99292.19;6181259;28;125097;-65
2021/04/23 10:00:40;;;;;;;;;14.00;12.60;;;;;18.69;30.04;99298.09;6181036;28;124982;-65
2021/04/23 10:03:43;;;;;;;;;12.00;11.00;;;;;18.49;29.74;99280.47;6184528;28;126624;-66
2021/04/23 10:06:46;;;;;;;;;13.00;12.40;;;;;18.33;28.53;99286.09;6173763;28;127255;-66
2021/04/23 10:10:01;;;;;;;;;11.75;10.00;;;;;18.04;27.65;99285.59;6184885;28;125915;-66
2021/04/23 10:13:06;;;;;;;;;11.00;10.75;;;;;18.13;27.52;99284.06;6154810;28;127509;-66
2021/04/23 10:16:09;;;;;;;;;8.20;8.20;;;;;18.34;27.76;99276.81;6179878;28;127192;-66
2021/04/23 10:19:12;;;;;;;;;11.40;11.00;;;;;18.49;26.90;99285.13;6178985;28;126461;-65
2021/04/23 10:22:15;;;;;;;;;13.00;12.50;;;;;18.42;27.47;99273.63;6181571;28;125337;-66
2021/04/23 10:25:17;;;;;;;;;9.25;9.00;;;;;18.57;27.98;99274.53;6176191;28;126568;-66
2021/04/23 10:28:21;;;;;;;;;11.00;10.00;;;;;18.57;27.65;99263.63;6176904;28;126327;-66
2021/04/23 10:31:25;;;;;;;;;10.50;10.00;;;;;18.57;28.01;99265.53;6190471;28;124127;-66
2021/04/23 10:34:33;;;;;;;;;11.60;11.00;;;;;18.39;28.41;99283.16;6182071;28;126076;-65
2021/04/23 10:37:44;;;;;;;;;11.50;11.50;;;;;17.83;28.87;99286.53;6162975;28;124998;-65
2021/04/23 10:40:54;;;;;;;;;10.00;9.00;;;;;17.46;31.34;99316.38;6149467;28;126133;-65
2021/04/23 10:44:07;;;;;;;;;11.25;10.00;;;;;16.79;34.63;99336.53;6158544;28;124855;-65
2021/04/23 10:47:10;;;;;;;;;10.50;9.00;;;;;16.21;36.29;99320.66;6184251;28;125871;-66
2021/04/23 10:50:15;;;;;;;;;11.00;10.00;;;;;15.64;37.97;99325.34;6187493;28;124988;-66
2021/04/23 10:53:19;;;;;;;;;9.80;9.00;;;;;15.40;39.28;99313.72;6183151;28;126011;-66
2021/04/23 10:56:28;;;;;;;;;10.00;9.00;;;;;15.74;38.89;99316.56;6165816;28;125309;-65
2021/04/23 10:59:35;;;;;;;;;9.00;9.00;;;;;16.03;38.18;99313.53;6171254;28;125722;-66
2021/04/23 11:03:22;;;;;;;;;8.00;8.00;;;;;16.54;36.88;99319.78;6168031;28;125968;-65
2021/04/23 11:06:31;;;;;;;;;7.00;7.00;;;;;17.15;37.66;99315.22;6185832;28;126254;-66
2021/04/23 11:09:33;;;;;;;;;10.50;9.00;;;;;17.39;36.54;99319.31;6176833;28;124810;-66
2021/04/23 11:12:35;;;;;;;;;10.00;9.00;;;;;17.34;35.89;99316.53;6188714;28;126331;-65
2021/04/23 11:15:37;;;;;;;;;10.25;9.00;;;;;17.08;35.59;99320.84;6183782;28;127943;-65
2021/04/23 11:18:40;;;;;;;;;9.00;8.00;;;;;16.68;35.75;99336.63;6180193;28;126602;-65
2021/04/23 11:21:43;;;;;;;;;8.75;8.00;;;;;16.23;36.07;99326.66;6189551;28;124304;-65
2021/04/23 11:25:04;;;;;;;;;7.00;7.00;;;;;15.94;36.25;99325.06;6181890;28;126452;-66
2021/04/23 11:28:11;;;;;;;;;7.00;7.00;;;;;15.58;35.52;99301.88;6163233;28;124758;-66
2021/04/23 11:31:13;;;;;;;;;7.00;6.00;;;;;15.49;36.21;99335.94;6160772;28;127184;-66
2021/04/23 11:34:30;;;;;;;;;10.00;9.40;;;;;15.35;36.88;99308.19;6165395;28;123927;-66
2021/04/23 11:37:49;;;;;;;;;8.00;8.00;;;;;15.26;37.92;99322.41;6184693;28;127336;-65
2021/04/23 11:41:11;;;;;;;;;9.00;9.00;;;;;15.15;37.56;99343.09;6186670;28;126357;-65
2021/04/23 11:44:45;;;;;;;;;9.00;9.00;;;;;14.96;39.37;99347.03;6193954;28;124795;-66
2021/04/23 11:47:49;;;;;;;;;9.60;8.60;;;;;14.59;40.10;99355.47;6179845;28;127137;-64
2021/04/23 11:50:53;;;;;;;;;11.00;10.00;;;;;14.27;41.72;99368.50;6198409;28;127823;-65
2021/04/23 11:53:55;;;;;;;;;11.40;11.00;;;;;14.10;42.34;99362.09;6189324;28;127267;-66
2021/04/23 11:57:00;;;;;;;;;11.00;10.00;;;;;13.92;42.87;99366.78;6189621;28;126327;-65
2021/04/23 12:00:07;;;;;;;;;8.60;8.20;;;;;13.84;43.35;99360.63;6184054;28;125381;-66
2021/04/23 12:03:17;;;;;;;;;9.80;8.80;;;;;13.75;43.56;99340.34;6176534;28;126102;-66
2021/04/23 12:06:26;;;;;;;;;10.00;9.00;;;;;13.79;43.89;99341.53;6187497;28;127003;-66
2021/04/23 12:09:28;;;;;;;;;12.00;11.00;;;;;13.70;43.63;99345.63;6176686;28;127087;-66
2021/04/23 12:12:31;;;;;;;;;12.60;11.00;;;;;13.81;44.66;99358.38;6188265;28;125408;-65
2021/04/23 12:15:35;;;;;;;;;11.00;11.00;;;;;13.85;44.69;99359.56;6171779;28;127439;-66
2021/04/23 12:18:42;;;;;;;;;11.40;11.40;;;;;13.88;44.68;99364.53;6195770;28;125803;-65
2021/04/23 12:21:54;;;;;;;;;14.50;13.00;;;;;14.02;44.94;99372.47;6181953;28;125895;-66
2021/04/23 12:25:32;;;;;;;;;11.80;11.80;;;;;14.04;45.21;99383.91;6174300;28;123884;-67
2021/04/23 12:28:37;;;;;;;;;9.00;9.00;;;;;13.83;44.11;99396.91;6176558;28;127132;-66
2021/04/23 12:31:41;;;;;;;;;8.20;7.60;;;;;13.72;44.38;99397.72;6170070;28;125664;-66
2021/04/23 12:34:45;;;;;;;;;12.40;11.00;;;;;13.81;44.39;99387.38;6199629;28;126066;-66
2021/04/23 12:37:49;;;;;;;;;8.00;8.00;;;;;13.86;44.49;99377.50;6184807;28;125439;-65
2021/04/23 12:40:55;;;;;;;;;7.75;7.75;;;;;14.07;44.47;99368.00;6174830;28;125917;-66
2021/04/23 12:44:00;;;;;;;;;9.00;8.00;;;;;14.29;45.10;99368.28;6187399;28;126310;-66
2021/04/23 12:47:04;;;;;;;;;9.00;9.00;;;;;14.55;43.49;99351.59;6169558;28;126569;-66
2021/04/23 12:50:07;;;;;;;;;9.00;7.25;;;;;14.94;43.69;99344.59;6169295;28;128292;-66
2021/04/23 12:53:11;;;;;;;;;10.20;10.20;;;;;15.41;42.53;99349.88;6187193;28;126848;-66
2021/04/23 12:56:13;;;;;;;;;12.00;11.00;;;;;15.81;41.98;99345.25;6197181;28;126050;-66
2021/04/23 12:59:40;;;;;;;;;9.00;9.00;;;;;16.45;41.00;99332.19;6173060;28;124859;-66
2021/04/23 13:02:44;;;;;;;;;10.40;10.40;;;;;16.76;40.70;99336.22;6177775;28;125844;-66
2021/04/23 13:05:47;;;;;;;;;13.40;11.40;;;;;16.81;39.38;99328.91;6178807;28;127297;-66
2021/04/23 13:09:01;;;;;;;;;10.00;10.00;;;;;16.76;39.46;99326.13;6172888;28;125987;-66
2021/04/23 13:12:17;;;;;;;;;12.00;12.00;;;;;16.42;38.53;99270.06;6183253;28;124864;-66
2021/04/23 13:15:26;;;;;;;;;13.20;11.20;;;;;16.32;37.81;99314.28;6177314;28;125087;-65
2021/04/23 13:18:30;;;;;;;;;12.60;12.00;;;;;16.26;38.28;99309.03;6198158;28;127089;-65
2021/04/23 13:21:32;;;;;;;;;14.00;12.60;;;;;16.11;38.57;99309.59;6192120;28;126153;-65
2021/04/23 13:24:35;;;;;;;;;14.67;13.00;;;;;16.06;39.24;99312.25;6170377;28;125068;-66
2021/04/23 13:27:40;;;;;;;;;14.00;12.00;;;;;16.43;39.30;99315.25;6174868;28;124831;-66
2021/04/23 13:30:55;;;;;;;;;12.00;11.00;;;;;16.89;39.53;99295.81;6154451;28;125713;-65
2021/04/23 13:34:06;;;;;;;;;13.40;13.00;;;;;17.46;39.02;99314.47;6175296;28;125988;-65
2021/04/23 13:37:08;;;;;;;;;13.00;12.00;;;;;17.84;37.04;99312.72;6197343;28;125927;-65
2021/04/23 13:40:11;;;;;;;;;13.00;13.00;;;;;17.99;35.14;99310.09;6187242;28;126409;-65
2021/04/23 13:43:15;;;;;;;;;13.00;12.00;;;;;18.03;35.87;99312.06;6168606;28;125355;-65
2021/04/23 13:46:19;;;;;;;;;15.20;13.00;;;;;18.10;35.88;99323.59;6163184;28;125691;-65
2021/04/23 13:49:27;;;;;;;;;12.00;10.00;;;;;17.88;35.99;99360.22;6175164;28;126494;-65
2021/04/23 13:52:41;;;;;;;;;7.00;6.00;;;;;17.58;35.69;99352.50;6195166;28;124158;-65
2021/04/23 13:59:11;;;;;;;;;8.20;7.60;;;;;16.80;36.47;99327.28;6335333;27;96836;-65
2021/04/23 14:02:16;;;;;;;;;7.00;6.40;;;;;16.36;37.66;99320.06;6304552;27;126001;-64
2021/04/23 14:05:18;;;;;;;;;7.50;7.00;;;;;16.09;38.43;99324.50;6294837;27;125916;-65
2021/04/23 14:08:20;;;;;;;;;8.40;8.00;;;;;15.96;39.05;99331.09;6301384;27;126539;-65